Luis Adriao — CULM2 — position and weather

sailwx.info

Track history (hours):
 
Tides and Currents Weather Stations Pressure Air Temp Water Temp Dewpoint Dewpoint Depression Visibility Wind Speed Wind Dir Waves Ship Positions

Luis Adriao

Last reported at 2017-Oct-19 05:24 UTC. Time now 2017-Oct-19 05:44 UTC.
Position N 38°24' W 008°55'.

Length 22 m.

Type: Fishing. MMSI: 263500262.

Date/timePositionNaut miles runAvg speedWind from/ knotsBaromVisibWave heightAir tempDewpointWater temp
2017-Oct-19 05:24N 38°24' W 008°55'1 2.0
2017-Oct-19 05:00N 38°25' W 008°56'1 2.7
2017-Oct-19 04:30N 38°24' W 008°55'1 1.7
2017-Oct-19 04:00N 38°23' W 008°54'0 0.6
2017-Oct-19 03:29N 38°23' W 008°54'0 0.4
2017-Oct-19 02:34N 38°23' W 008°54'0 1.3
2017-Oct-19 02:30N 38°23' W 008°54'4 8.0
2017-Oct-19 02:01N 38°23' W 008°59'4 8.5
2017-Oct-19 01:30N 38°25' W 009°04'3 5.7
2017-Oct-19 01:00N 38°26' W 009°07'0 0.0
2017-Oct-19 00:31N 38°26' W 009°07'0 0.0
2017-Oct-19 00:01N 38°26' W 009°07'0 0.0
2017-Oct-18 23:29N 38°26' W 009°07'0 0.0
2017-Oct-18 23:00N 38°26' W 009°07'0 0.0
2017-Oct-18 22:31N 38°26' W 009°07'0 0.0
2017-Oct-18 22:01N 38°26' W 009°07'0 0.0
2017-Oct-18 21:31N 38°26' W 009°07'0 0.3
2017-Oct-18 21:00N 38°26' W 009°07'0 0.3
2017-Oct-18 20:30N 38°26' W 009°07'0 0.0
2017-Oct-18 20:00N 38°26' W 009°07'0 0.0
2017-Oct-18 19:25N 38°26' W 009°07'0 0.0
2017-Oct-18 19:00N 38°26' W 009°07'0 0.0
2017-Oct-18 18:30N 38°26' W 009°07'0 0.0
2017-Oct-18 18:00N 38°26' W 009°07'0 0.0
2017-Oct-18 11:48N 38°26' W 009°07'0 0.0
2017-Oct-18 11:29N 38°26' W 009°07'0 0.0
2017-Oct-18 11:00N 38°26' W 009°07'0 0.0
2017-Oct-18 10:30N 38°26' W 009°07'0 0.0
2017-Oct-18 09:56N 38°26' W 009°07'0 0.0
2017-Oct-18 09:30N 38°26' W 009°07'1 1.5
2017-Oct-18 09:00N 38°26' W 009°07'5 8.4
2017-Oct-18 08:24N 38°25' W 009°14'4 8.5
2017-Oct-18 07:58N 38°28' W 009°14'4 8.2
2017-Oct-18 07:30N 38°32' W 009°14'1 1.1
2017-Oct-18 06:59N 38°33' W 009°14'0 0.4
2017-Oct-18 06:30N 38°33' W 009°14'0 0.3
2017-Oct-18 06:00N 38°33' W 009°14'0 0.2
2017-Oct-18 05:29N 38°33' W 009°14'0 0.2
2017-Oct-18 05:00N 38°33' W 009°14'2 3.3
2017-Oct-18 04:30N 38°34' W 009°15'1 2.0
2017-Oct-18 03:58N 38°35' W 009°15'0 0.1
2017-Oct-18 03:30N 38°35' W 009°15'0 0.0
2017-Oct-18 03:00N 38°35' W 009°15'0 0.0
2017-Oct-18 02:30N 38°35' W 009°15'0 0.0
2017-Oct-18 01:59N 38°35' W 009°15'0 0.0
2017-Oct-18 01:30N 38°35' W 009°15'0 0.0
2017-Oct-18 01:00N 38°35' W 009°15'0 0.0
2017-Oct-18 00:30N 38°35' W 009°15'0 0.0
2017-Oct-18 00:00N 38°35' W 009°15'0 0.0
2017-Oct-17 23:27N 38°35' W 009°15'0 0.5
2017-Oct-17 23:00N 38°35' W 009°15'3 5.8
2017-Oct-17 22:30N 38°33' W 009°13'0 0.8
2017-Oct-17 22:00N 38°32' W 009°14'0 0.5
2017-Oct-17 21:30N 38°32' W 009°14'0 0.3
2017-Oct-17 20:59N 38°32' W 009°14'0 0.3
2017-Oct-17 20:28N 38°32' W 009°14'3 5.8
2017-Oct-17 19:58N 38°33' W 009°17'1 2.3
2017-Oct-17 19:30N 38°34' W 009°17'4 7.2
2017-Oct-17 18:59N 38°32' W 009°14'2 3.9
2017-Oct-17 18:30N 38°30' W 009°14'3 5.2
2017-Oct-17 17:59N 38°27' W 009°14'3 6.8
2017-Oct-17 17:29N 38°25' W 009°11'4 7.8
2017-Oct-17 17:00N 38°26' W 009°07'0 0.0
2017-Oct-17 11:09N 38°26' W 009°07'0 0.0
2017-Oct-17 11:00N 38°26' W 009°07'0 0.1
2017-Oct-17 10:29N 38°26' W 009°07'0 0.0
2017-Oct-17 08:41N 38°26' W 009°07'1 5.8
2017-Oct-17 08:30N 38°26' W 009°08'4 8.3
2017-Oct-17 08:00N 38°25' W 009°13'4 8.7
2017-Oct-17 07:30N 38°28' W 009°17'4 8.8
2017-Oct-17 07:00N 38°31' W 009°20'5 8.8
2017-Oct-17 06:28N 38°35' W 009°23'4 8.6
2017-Oct-17 06:00N 38°39' W 009°26'0 0.4
2017-Oct-17 05:30N 38°39' W 009°26'0 0.1
2017-Oct-17 05:00N 38°39' W 009°26'0 0.2
2017-Oct-17 04:30N 38°39' W 009°26'0 0.3
2017-Oct-17 04:00N 38°39' W 009°26'0 0.3
2017-Oct-17 03:30N 38°39' W 009°26'0 1.0
2017-Oct-17 03:00N 38°39' W 009°25'4 8.0
2017-Oct-17 02:30N 38°37' W 009°21'1 2.2
2017-Oct-17 02:00N 38°36' W 009°20'0 0.2
2017-Oct-17 01:30N 38°36' W 009°20'0 0.2
2017-Oct-17 01:00N 38°36' W 009°20'3 5.1
2017-Oct-17 00:30N 38°35' W 009°17'4 7.5
2017-Oct-17 00:00N 38°32' W 009°14'3 5.6
2017-Oct-16 23:30N 38°29' W 009°14'1 1.5
2017-Oct-16 23:00N 38°29' W 009°13'0 0.6
2017-Oct-16 22:25N 38°29' W 009°14'0 0.2
2017-Oct-16 21:57N 38°29' W 009°14'0 0.1
2017-Oct-16 21:30N 38°29' W 009°14'0 0.1
2017-Oct-16 21:00N 38°29' W 009°14'2 3.7
2017-Oct-16 20:30N 38°27' W 009°14'5 5.7
2017-Oct-16 19:38N 38°25' W 009°08'1 8.8
2017-Oct-16 19:29N 38°26' W 009°07'0 1.0
2017-Oct-16 19:00N 38°26' W 009°07'0 0.0
2017-Oct-16 13:03N 38°26' W 009°07'0 0.0
2017-Oct-16 13:00N 38°26' W 009°07'0 0.1
2017-Oct-16 11:11N 38°26' W 009°07'0 0.0
2017-Oct-16 10:12N 38°26' W 009°07'2 8.2
2017-Oct-16 10:00N 38°25' W 009°05'5 9.5
2017-Oct-16 09:29N 38°23' W 008°60'5 9.4
2017-Oct-16 08:55N 38°20' W 008°54'4 9.2
2017-Oct-16 08:30N 38°17' W 008°50'2 2.3
2017-Oct-16 07:47N 38°16' W 008°49'0 0.3
2017-Oct-16 06:31N 38°16' W 008°49'0 0.3
2017-Oct-16 06:29N 38°16' W 008°49'0 0.2
2017-Oct-16 05:48N 38°16' W 008°49'0 0.1
2017-Oct-16 05:30N 38°16' W 008°49'0 0.2
2017-Oct-16 05:00N 38°16' W 008°49'0 0.2
2017-Oct-16 04:30N 38°16' W 008°49'4 8.2
2017-Oct-16 04:00N 38°17' W 008°54'4 8.3
2017-Oct-16 03:31N 38°18' W 008°59'4 8.5
2017-Oct-16 03:00N 38°20' W 009°04'4 8.4
2017-Oct-16 02:30N 38°22' W 009°08'4 8.2
2017-Oct-16 02:00N 38°24' W 009°13'3 6.4
2017-Oct-16 01:30N 38°27' W 009°14'4 7.1
2017-Oct-16 00:59N 38°31' W 009°14'2 4.5
2017-Oct-16 00:30N 38°33' W 009°15'3 6.8
2017-Oct-16 00:00N 38°36' W 009°18'2 4.0
2017-Oct-15 23:30N 38°35' W 009°20'3 6.0
2017-Oct-15 22:59N 38°34' W 009°17'4 7.5
2017-Oct-15 22:29N 38°31' W 009°14'4 8.8
2017-Oct-15 22:00N 38°27' W 009°15'4 7.4
2017-Oct-15 21:30N 38°24' W 009°11'4 8.3
2017-Oct-15 21:00N 38°26' W 009°06'0 0.6
2017-Oct-15 20:30N 38°26' W 009°07'  
2017-Oct-13 09:21N 38°26' W 009°07'0 0.0
2017-Oct-13 08:57N 38°26' W 009°07'0 0.0
2017-Oct-13 08:28N 38°26' W 009°07'5 6.2
2017-Oct-13 07:43N 38°25' W 009°12'1 0.2
2017-Oct-13 03:42N 38°25' W 009°13'4 8.5
2017-Oct-13 03:14N 38°25' W 009°08'2 7.5
2017-Oct-13 03:00N 38°26' W 009°07'0 0.2
2017-Oct-13 02:21N 38°26' W 009°07'0 0.0
2017-Oct-13 01:56N 38°26' W 009°07'1 2.7
2017-Oct-13 01:30N 38°26' W 009°08'4 8.4
2017-Oct-13 01:00N 38°24' W 009°13'13 2.4
2017-Oct-12 19:26N 38°36' W 009°22'2 4.3
2017-Oct-12 18:58N 38°34' W 009°20'4 8.4
2017-Oct-12 18:28N 38°31' W 009°17'4 8.8
2017-Oct-12 18:01N 38°27' W 009°15'4 7.6
2017-Oct-12 17:30N 38°25' W 009°11'4 7.0
2017-Oct-12 17:00N 38°26' W 009°07'0 0.2
2017-Oct-12 16:30N 38°26' W 009°07'0 0.0
2017-Oct-12 09:17N 38°26' W 009°07'0 0.0
2017-Oct-12 09:00N 38°26' W 009°07'0 0.0
2017-Oct-12 08:30N 38°26' W 009°07'4 6.1
2017-Oct-12 07:55N 38°25' W 009°11'3 6.5
2017-Oct-12 07:30N 38°26' W 009°14'5 8.8
2017-Oct-12 06:59N 38°31' W 009°14'1 1.5
2017-Oct-12 06:28N 38°31' W 009°14'1 1.6
2017-Oct-12 05:58N 38°32' W 009°14'0 0.5
2017-Oct-12 05:25N 38°32' W 009°14'1 2.5
2017-Oct-12 04:59N 38°33' W 009°14'3 5.9
2017-Oct-12 04:29N 38°30' W 009°14'4 8.9
2017-Oct-12 04:00N 38°26' W 009°14'4 7.3
2017-Oct-12 03:28N 38°25' W 009°09'2 2.3
2017-Oct-12 02:38N 38°26' W 009°07'0 0.0
2017-Oct-12 02:30N 38°26' W 009°07'1 1.5
2017-Oct-12 02:00N 38°26' W 009°07'4 8.3
2017-Oct-12 01:30N 38°24' W 009°12'4 8.3
2017-Oct-12 01:00N 38°28' W 009°16'4 9.0
2017-Oct-12 00:30N 38°32' W 009°18'4 7.8
2017-Oct-12 00:00N 38°34' W 009°21'4 8.5
2017-Oct-11 23:30N 38°38' W 009°25'1 1.9
2017-Oct-11 23:01N 38°39' W 009°25'0 0.2
2017-Oct-11 22:30N 38°39' W 009°25'0 0.1
2017-Oct-11 22:00N 38°39' W 009°25'0 0.4
2017-Oct-11 21:30N 38°39' W 009°25'0 0.2
2017-Oct-11 21:00N 38°39' W 009°25'0 0.1
2017-Oct-11 20:30N 38°39' W 009°25'0 0.0
2017-Oct-11 20:00N 38°39' W 009°25'3 5.6
2017-Oct-11 19:31N 38°36' W 009°23'4 7.4
2017-Oct-11 19:00N 38°34' W 009°19'1 2.6
2017-Oct-11 18:28N 38°33' W 009°18'4 8.4
2017-Oct-11 17:59N 38°29' W 009°16'4 8.7
2017-Oct-11 17:29N 38°25' W 009°14'4 8.0
2017-Oct-11 17:00N 38°25' W 009°09'9 0.5
2017-Oct-11 00:01N 38°33' W 009°15'4 7.9
2017-Oct-10 23:30N 38°34' W 009°20'0 0.4
2017-Oct-10 23:01N 38°34' W 009°20'4 8.1
2017-Oct-10 22:30N 38°31' W 009°17'4 8.6
2017-Oct-10 22:01N 38°27' W 009°15'4 8.0
2017-Oct-10 21:30N 38°24' W 009°11'4 8.3
2017-Oct-10 21:01N 38°26' W 009°07'0 0.0
2017-Oct-10 09:12N 38°26' W 009°07'0 0.0
2017-Oct-10 09:00N 38°26' W 009°07'0 0.0
2017-Oct-10 08:30N 38°26' W 009°07'0 0.0
2017-Oct-10 08:00N 38°26' W 009°07'0 0.0
2017-Oct-10 07:31N 38°26' W 009°07'0 0.0
2017-Oct-10 07:00N 38°26' W 009°07'0 0.0
2017-Oct-10 06:30N 38°26' W 009°07'0 0.0
2017-Oct-10 06:01N 38°26' W 009°07'0 0.0
2017-Oct-10 05:30N 38°26' W 009°07'3 5.9
2017-Oct-10 05:00N 38°24' W 009°09'4 7.7
2017-Oct-10 04:31N 38°24' W 009°14'4 8.1
2017-Oct-10 04:00N 38°28' W 009°16'4 8.6
2017-Oct-10 03:31N 38°32' W 009°18'4 8.4
2017-Oct-10 03:00N 38°35' W 009°21'4 8.3
2017-Oct-10 02:31N 38°39' W 009°24'1 1.2
2017-Oct-10 02:01N 38°39' W 009°24'0 0.2
2017-Oct-10 01:30N 38°39' W 009°24'0 0.3
2017-Oct-10 01:00N 38°39' W 009°24'0 0.3
2017-Oct-10 00:30N 38°39' W 009°24'0 0.2
2017-Oct-10 00:00N 38°39' W 009°24'0 0.7
2017-Oct-09 23:31N 38°39' W 009°25'3 6.4
2017-Oct-09 23:01N 38°36' W 009°22'3 5.7
2017-Oct-09 22:31N 38°34' W 009°20'0 0.2
2017-Oct-09 22:01N 38°34' W 009°20'0 0.3
2017-Oct-09 21:31N 38°34' W 009°20'0 0.6
2017-Oct-09 21:00N 38°34' W 009°20'2 4.9
2017-Oct-09 20:30N 38°35' W 009°23'3 6.2
2017-Oct-09 20:01N 38°34' W 009°19'4 8.6
2017-Oct-09 19:30N 38°30' W 009°17'4 8.6
2017-Oct-09 19:00N 38°26' W 009°14'4 7.5
2017-Oct-09 18:30N 38°25' W 009°10'3 5.8
2017-Oct-09 18:00N 38°26' W 009°07'0 0.0
2017-Oct-09 09:27N 38°26' W 009°07'0 0.0
2017-Oct-09 09:00N 38°26' W 009°07'0 0.0
2017-Oct-09 08:31N 38°26' W 009°07'0 0.0
2017-Oct-09 08:00N 38°26' W 009°07'0 0.0
2017-Oct-09 07:30N 38°26' W 009°07'0 0.0
2017-Oct-09 07:00N 38°26' W 009°07'0 0.0
2017-Oct-09 06:31N 38°26' W 009°07'0 0.0
2017-Oct-09 06:01N 38°26' W 009°07'0 0.0
2017-Oct-09 05:31N 38°26' W 009°07'  
Track history (hours):
 
Tides and Currents Weather Stations Pressure Air Temp Water Temp Dewpoint Dewpoint Depression Visibility Wind Speed Wind Dir Waves Ship Positions

Luis Adriao

Last reported at 2017-Oct-19 05:24 UTC. Time now 2017-Oct-19 05:44 UTC.
Position N 38°24' W 008°55'.

Length 22 m.

Type: Fishing. MMSI: 263500262.

Date/timePositionNaut miles runAvg speedWind from/ knotsBaromVisibWave heightAir tempDewpointWater temp
2017-Oct-19 05:24N 38°24' W 008°55'1 2.0
2017-Oct-19 05:00N 38°25' W 008°56'1 2.7
2017-Oct-19 04:30N 38°24' W 008°55'1 1.7
2017-Oct-19 04:00N 38°23' W 008°54'0 0.6
2017-Oct-19 03:29N 38°23' W 008°54'0 0.4
2017-Oct-19 02:34N 38°23' W 008°54'0 1.3
2017-Oct-19 02:30N 38°23' W 008°54'4 8.0
2017-Oct-19 02:01N 38°23' W 008°59'4 8.5
2017-Oct-19 01:30N 38°25' W 009°04'3 5.7
2017-Oct-19 01:00N 38°26' W 009°07'0 0.0
2017-Oct-19 00:31N 38°26' W 009°07'0 0.0
2017-Oct-19 00:01N 38°26' W 009°07'0 0.0
2017-Oct-18 23:29N 38°26' W 009°07'0 0.0
2017-Oct-18 23:00N 38°26' W 009°07'0 0.0
2017-Oct-18 22:31N 38°26' W 009°07'0 0.0
2017-Oct-18 22:01N 38°26' W 009°07'0 0.0
2017-Oct-18 21:31N 38°26' W 009°07'0 0.3
2017-Oct-18 21:00N 38°26' W 009°07'0 0.3
2017-Oct-18 20:30N 38°26' W 009°07'0 0.0
2017-Oct-18 20:00N 38°26' W 009°07'0 0.0
2017-Oct-18 19:25N 38°26' W 009°07'0 0.0
2017-Oct-18 19:00N 38°26' W 009°07'0 0.0
2017-Oct-18 18:30N 38°26' W 009°07'0 0.0
2017-Oct-18 18:00N 38°26' W 009°07'0 0.0
2017-Oct-18 11:48N 38°26' W 009°07'0 0.0
2017-Oct-18 11:29N 38°26' W 009°07'0 0.0
2017-Oct-18 11:00N 38°26' W 009°07'0 0.0
2017-Oct-18 10:30N 38°26' W 009°07'0 0.0
2017-Oct-18 09:56N 38°26' W 009°07'0 0.0
2017-Oct-18 09:30N 38°26' W 009°07'1 1.5
2017-Oct-18 09:00N 38°26' W 009°07'5 8.4
2017-Oct-18 08:24N 38°25' W 009°14'4 8.5
2017-Oct-18 07:58N 38°28' W 009°14'4 8.2
2017-Oct-18 07:30N 38°32' W 009°14'1 1.1
2017-Oct-18 06:59N 38°33' W 009°14'0 0.4
2017-Oct-18 06:30N 38°33' W 009°14'0 0.3
2017-Oct-18 06:00N 38°33' W 009°14'0 0.2
2017-Oct-18 05:29N 38°33' W 009°14'0 0.2
2017-Oct-18 05:00N 38°33' W 009°14'2 3.3
2017-Oct-18 04:30N 38°34' W 009°15'1 2.0
2017-Oct-18 03:58N 38°35' W 009°15'0 0.1
2017-Oct-18 03:30N 38°35' W 009°15'0 0.0
2017-Oct-18 03:00N 38°35' W 009°15'0 0.0
2017-Oct-18 02:30N 38°35' W 009°15'0 0.0
2017-Oct-18 01:59N 38°35' W 009°15'0 0.0
2017-Oct-18 01:30N 38°35' W 009°15'0 0.0
2017-Oct-18 01:00N 38°35' W 009°15'0 0.0
2017-Oct-18 00:30N 38°35' W 009°15'0 0.0
2017-Oct-18 00:00N 38°35' W 009°15'0 0.0
2017-Oct-17 23:27N 38°35' W 009°15'0 0.5
2017-Oct-17 23:00N 38°35' W 009°15'3 5.8
2017-Oct-17 22:30N 38°33' W 009°13'0 0.8
2017-Oct-17 22:00N 38°32' W 009°14'0 0.5
2017-Oct-17 21:30N 38°32' W 009°14'0 0.3
2017-Oct-17 20:59N 38°32' W 009°14'0 0.3
2017-Oct-17 20:28N 38°32' W 009°14'3 5.8
2017-Oct-17 19:58N 38°33' W 009°17'1 2.3
2017-Oct-17 19:30N 38°34' W 009°17'4 7.2
2017-Oct-17 18:59N 38°32' W 009°14'2 3.9
2017-Oct-17 18:30N 38°30' W 009°14'3 5.2
2017-Oct-17 17:59N 38°27' W 009°14'3 6.8
2017-Oct-17 17:29N 38°25' W 009°11'4 7.8
2017-Oct-17 17:00N 38°26' W 009°07'0 0.0
2017-Oct-17 11:09N 38°26' W 009°07'0 0.0
2017-Oct-17 11:00N 38°26' W 009°07'0 0.1
2017-Oct-17 10:29N 38°26' W 009°07'0 0.0
2017-Oct-17 08:41N 38°26' W 009°07'1 5.8
2017-Oct-17 08:30N 38°26' W 009°08'4 8.3
2017-Oct-17 08:00N 38°25' W 009°13'4 8.7
2017-Oct-17 07:30N 38°28' W 009°17'4 8.8
2017-Oct-17 07:00N 38°31' W 009°20'5 8.8
2017-Oct-17 06:28N 38°35' W 009°23'4 8.6
2017-Oct-17 06:00N 38°39' W 009°26'0 0.4
2017-Oct-17 05:30N 38°39' W 009°26'0 0.1
2017-Oct-17 05:00N 38°39' W 009°26'0 0.2
2017-Oct-17 04:30N 38°39' W 009°26'0 0.3
2017-Oct-17 04:00N 38°39' W 009°26'0 0.3
2017-Oct-17 03:30N 38°39' W 009°26'0 1.0
2017-Oct-17 03:00N 38°39' W 009°25'4 8.0
2017-Oct-17 02:30N 38°37' W 009°21'1 2.2
2017-Oct-17 02:00N 38°36' W 009°20'0 0.2
2017-Oct-17 01:30N 38°36' W 009°20'0 0.2
2017-Oct-17 01:00N 38°36' W 009°20'3 5.1
2017-Oct-17 00:30N 38°35' W 009°17'4 7.5
2017-Oct-17 00:00N 38°32' W 009°14'3 5.6
2017-Oct-16 23:30N 38°29' W 009°14'1 1.5
2017-Oct-16 23:00N 38°29' W 009°13'0 0.6
2017-Oct-16 22:25N 38°29' W 009°14'0 0.2
2017-Oct-16 21:57N 38°29' W 009°14'0 0.1
2017-Oct-16 21:30N 38°29' W 009°14'0 0.1
2017-Oct-16 21:00N 38°29' W 009°14'2 3.7
2017-Oct-16 20:30N 38°27' W 009°14'5 5.7
2017-Oct-16 19:38N 38°25' W 009°08'1 8.8
2017-Oct-16 19:29N 38°26' W 009°07'0 1.0
2017-Oct-16 19:00N 38°26' W 009°07'0 0.0
2017-Oct-16 13:03N 38°26' W 009°07'0 0.0
2017-Oct-16 13:00N 38°26' W 009°07'0 0.1
2017-Oct-16 11:11N 38°26' W 009°07'0 0.0
2017-Oct-16 10:12N 38°26' W 009°07'2 8.2
2017-Oct-16 10:00N 38°25' W 009°05'5 9.5
2017-Oct-16 09:29N 38°23' W 008°60'5 9.4
2017-Oct-16 08:55N 38°20' W 008°54'4 9.2
2017-Oct-16 08:30N 38°17' W 008°50'2 2.3
2017-Oct-16 07:47N 38°16' W 008°49'0 0.3
2017-Oct-16 06:31N 38°16' W 008°49'0 0.3
2017-Oct-16 06:29N 38°16' W 008°49'0 0.2
2017-Oct-16 05:48N 38°16' W 008°49'0 0.1
2017-Oct-16 05:30N 38°16' W 008°49'0 0.2
2017-Oct-16 05:00N 38°16' W 008°49'0 0.2
2017-Oct-16 04:30N 38°16' W 008°49'4 8.2
2017-Oct-16 04:00N 38°17' W 008°54'4 8.3
2017-Oct-16 03:31N 38°18' W 008°59'4 8.5
2017-Oct-16 03:00N 38°20' W 009°04'4 8.4
2017-Oct-16 02:30N 38°22' W 009°08'4 8.2
2017-Oct-16 02:00N 38°24' W 009°13'3 6.4
2017-Oct-16 01:30N 38°27' W 009°14'4 7.1
2017-Oct-16 00:59N 38°31' W 009°14'2 4.5
2017-Oct-16 00:30N 38°33' W 009°15'3 6.8
2017-Oct-16 00:00N 38°36' W 009°18'2 4.0
2017-Oct-15 23:30N 38°35' W 009°20'3 6.0
2017-Oct-15 22:59N 38°34' W 009°17'4 7.5
2017-Oct-15 22:29N 38°31' W 009°14'4 8.8
2017-Oct-15 22:00N 38°27' W 009°15'4 7.4
2017-Oct-15 21:30N 38°24' W 009°11'4 8.3
2017-Oct-15 21:00N 38°26' W 009°06'0 0.6
2017-Oct-15 20:30N 38°26' W 009°07'  
2017-Oct-13 09:21N 38°26' W 009°07'0 0.0
2017-Oct-13 08:57N 38°26' W 009°07'0 0.0
2017-Oct-13 08:28N 38°26' W 009°07'5 6.2
2017-Oct-13 07:43N 38°25' W 009°12'1 0.2
2017-Oct-13 03:42N 38°25' W 009°13'4 8.5
2017-Oct-13 03:14N 38°25' W 009°08'2 7.5
2017-Oct-13 03:00N 38°26' W 009°07'0 0.2
2017-Oct-13 02:21N 38°26' W 009°07'0 0.0
2017-Oct-13 01:56N 38°26' W 009°07'1 2.7
2017-Oct-13 01:30N 38°26' W 009°08'4 8.4
2017-Oct-13 01:00N 38°24' W 009°13'13 2.4
2017-Oct-12 19:26N 38°36' W 009°22'2 4.3
2017-Oct-12 18:58N 38°34' W 009°20'4 8.4
2017-Oct-12 18:28N 38°31' W 009°17'4 8.8
2017-Oct-12 18:01N 38°27' W 009°15'4 7.6
2017-Oct-12 17:30N 38°25' W 009°11'4 7.0
2017-Oct-12 17:00N 38°26' W 009°07'0 0.2
2017-Oct-12 16:30N 38°26' W 009°07'0 0.0
2017-Oct-12 09:17N 38°26' W 009°07'0 0.0
2017-Oct-12 09:00N 38°26' W 009°07'0 0.0
2017-Oct-12 08:30N 38°26' W 009°07'4 6.1
2017-Oct-12 07:55N 38°25' W 009°11'3 6.5
2017-Oct-12 07:30N 38°26' W 009°14'5 8.8
2017-Oct-12 06:59N 38°31' W 009°14'1 1.5
2017-Oct-12 06:28N 38°31' W 009°14'1 1.6
2017-Oct-12 05:58N 38°32' W 009°14'0 0.5
2017-Oct-12 05:25N 38°32' W 009°14'1 2.5
2017-Oct-12 04:59N 38°33' W 009°14'3 5.9
2017-Oct-12 04:29N 38°30' W 009°14'4 8.9
2017-Oct-12 04:00N 38°26' W 009°14'4 7.3
2017-Oct-12 03:28N 38°25' W 009°09'2 2.3
2017-Oct-12 02:38N 38°26' W 009°07'0 0.0
2017-Oct-12 02:30N 38°26' W 009°07'1 1.5
2017-Oct-12 02:00N 38°26' W 009°07'4 8.3
2017-Oct-12 01:30N 38°24' W 009°12'4 8.3
2017-Oct-12 01:00N 38°28' W 009°16'4 9.0
2017-Oct-12 00:30N 38°32' W 009°18'4 7.8
2017-Oct-12 00:00N 38°34' W 009°21'4 8.5
2017-Oct-11 23:30N 38°38' W 009°25'1 1.9
2017-Oct-11 23:01N 38°39' W 009°25'0 0.2
2017-Oct-11 22:30N 38°39' W 009°25'0 0.1
2017-Oct-11 22:00N 38°39' W 009°25'0 0.4
2017-Oct-11 21:30N 38°39' W 009°25'0 0.2
2017-Oct-11 21:00N 38°39' W 009°25'0 0.1
2017-Oct-11 20:30N 38°39' W 009°25'0 0.0
2017-Oct-11 20:00N 38°39' W 009°25'3 5.6
2017-Oct-11 19:31N 38°36' W 009°23'4 7.4
2017-Oct-11 19:00N 38°34' W 009°19'1 2.6
2017-Oct-11 18:28N 38°33' W 009°18'4 8.4
2017-Oct-11 17:59N 38°29' W 009°16'4 8.7
2017-Oct-11 17:29N 38°25' W 009°14'4 8.0
2017-Oct-11 17:00N 38°25' W 009°09'9 0.5
2017-Oct-11 00:01N 38°33' W 009°15'4 7.9
2017-Oct-10 23:30N 38°34' W 009°20'0 0.4
2017-Oct-10 23:01N 38°34' W 009°20'4 8.1
2017-Oct-10 22:30N 38°31' W 009°17'4 8.6
2017-Oct-10 22:01N 38°27' W 009°15'4 8.0
2017-Oct-10 21:30N 38°24' W 009°11'4 8.3
2017-Oct-10 21:01N 38°26' W 009°07'0 0.0
2017-Oct-10 09:12N 38°26' W 009°07'0 0.0
2017-Oct-10 09:00N 38°26' W 009°07'0 0.0
2017-Oct-10 08:30N 38°26' W 009°07'0 0.0
2017-Oct-10 08:00N 38°26' W 009°07'0 0.0
2017-Oct-10 07:31N 38°26' W 009°07'0 0.0
2017-Oct-10 07:00N 38°26' W 009°07'0 0.0
2017-Oct-10 06:30N 38°26' W 009°07'0 0.0
2017-Oct-10 06:01N 38°26' W 009°07'0 0.0
2017-Oct-10 05:30N 38°26' W 009°07'3 5.9
2017-Oct-10 05:00N 38°24' W 009°09'4 7.7
2017-Oct-10 04:31N 38°24' W 009°14'4 8.1
2017-Oct-10 04:00N 38°28' W 009°16'4 8.6
2017-Oct-10 03:31N 38°32' W 009°18'4 8.4
2017-Oct-10 03:00N 38°35' W 009°21'4 8.3
2017-Oct-10 02:31N 38°39' W 009°24'1 1.2
2017-Oct-10 02:01N 38°39' W 009°24'0 0.2
2017-Oct-10 01:30N 38°39' W 009°24'0 0.3
2017-Oct-10 01:00N 38°39' W 009°24'0 0.3
2017-Oct-10 00:30N 38°39' W 009°24'0 0.2
2017-Oct-10 00:00N 38°39' W 009°24'0 0.7
2017-Oct-09 23:31N 38°39' W 009°25'3 6.4
2017-Oct-09 23:01N 38°36' W 009°22'3 5.7
2017-Oct-09 22:31N 38°34' W 009°20'0 0.2
2017-Oct-09 22:01N 38°34' W 009°20'0 0.3
2017-Oct-09 21:31N 38°34' W 009°20'0 0.6
2017-Oct-09 21:00N 38°34' W 009°20'2 4.9
2017-Oct-09 20:30N 38°35' W 009°23'3 6.2
2017-Oct-09 20:01N 38°34' W 009°19'4 8.6
2017-Oct-09 19:30N 38°30' W 009°17'4 8.6
2017-Oct-09 19:00N 38°26' W 009°14'4 7.5
2017-Oct-09 18:30N 38°25' W 009°10'3 5.8
2017-Oct-09 18:00N 38°26' W 009°07'0 0.0
2017-Oct-09 09:27N 38°26' W 009°07'0 0.0
2017-Oct-09 09:00N 38°26' W 009°07'0 0.0
2017-Oct-09 08:31N 38°26' W 009°07'0 0.0
2017-Oct-09 08:00N 38°26' W 009°07'0 0.0
2017-Oct-09 07:30N 38°26' W 009°07'0 0.0
2017-Oct-09 07:00N 38°26' W 009°07'0 0.0
2017-Oct-09 06:31N 38°26' W 009°07'0 0.0
2017-Oct-09 06:01N 38°26' W 009°07'0 0.0
2017-Oct-09 05:31N 38°26' W 009°07'  

Dump ship's entire track history